createdAt,value
2023-02-01T00:00:51.565Z,63.57
2023-02-01T00:01:53.283Z,63.55
2023-02-01T00:02:56.066Z,63.95
2023-02-01T00:03:58.020Z,63.89
2023-02-01T00:05:00.788Z,63.16
2023-02-01T00:06:04.040Z,63.35
2023-02-01T00:07:07.583Z,64.13
2023-02-01T00:08:10.100Z,63.78
2023-02-01T00:09:12.869Z,63.94
2023-02-01T00:10:14.548Z,63.89
2023-02-01T00:11:18.590Z,63.34
2023-02-01T00:12:20.246Z,63.07
2023-02-01T00:13:22.907Z,63.95
2023-02-01T00:14:24.713Z,64.11
2023-02-01T00:15:27.451Z,63.54
2023-02-01T00:16:30.686Z,63.28
2023-02-01T00:17:33.385Z,63.43
2023-02-01T00:18:35.131Z,63.11
2023-02-01T00:19:37.824Z,63.81
2023-02-01T00:20:39.691Z,62.86
2023-02-01T00:21:42.664Z,62.85
2023-02-01T00:22:44.341Z,63.54
2023-02-01T00:23:47.207Z,63.52
2023-02-01T00:24:48.961Z,63.55
2023-02-01T00:25:51.783Z,63.73
2023-02-01T00:26:54.848Z,63.43
2023-02-01T00:27:59.791Z,63.59
2023-02-01T00:29:01.836Z,63.89
2023-02-01T00:30:05.407Z,63.66
2023-02-01T00:31:07.405Z,64.14
2023-02-01T00:32:10.128Z,64.41
2023-02-01T00:33:11.885Z,63.81
2023-02-01T00:34:16.431Z,64.22
2023-02-01T00:35:18.130Z,64.00
2023-02-01T00:36:21.198Z,63.54
2023-02-01T00:37:24.199Z,63.46
2023-02-01T00:38:26.881Z,63.43
2023-02-01T00:39:28.700Z,64.16
2023-02-01T00:40:31.397Z,63.59
2023-02-01T00:41:33.160Z,63.74
2023-02-01T00:42:37.220Z,64.04
2023-02-01T00:43:39.263Z,64.27
2023-02-01T00:44:41.948Z,64.54
2023-02-01T00:45:43.665Z,64.89
2023-02-01T00:46:46.480Z,63.87
2023-02-01T00:47:48.242Z,63.84
2023-02-01T00:48:51.383Z,64.98
2023-02-01T00:49:53.237Z,64.32
2023-02-01T00:50:55.975Z,63.87
2023-02-01T00:51:57.750Z,64.00
2023-02-01T00:53:00.732Z,63.83
2023-02-01T00:54:02.500Z,64.03
2023-02-01T00:55:05.699Z,64.14
2023-02-01T00:56:08.434Z,63.71
2023-02-01T00:57:11.181Z,64.32
2023-02-01T00:58:14.467Z,64.10
2023-02-01T00:59:17.349Z,64.40
2023-02-01T01:00:19.940Z,63.45
2023-02-01T01:01:25.090Z,63.55
2023-02-01T01:02:27.585Z,63.85
2023-02-01T01:03:34.153Z,63.32
2023-02-01T01:04:36.834Z,63.80
2023-02-01T01:05:38.571Z,64.09
2023-02-01T01:06:41.438Z,64.44
2023-02-01T01:07:43.166Z,63.68
2023-02-01T01:08:46.342Z,64.33
2023-02-01T01:09:48.104Z,64.09
2023-02-01T01:10:51.261Z,64.46
2023-02-01T01:11:53.717Z,63.17
2023-02-01T01:12:56.386Z,63.18
2023-02-01T01:14:01.593Z,63.90
2023-02-01T01:15:03.747Z,63.26
2023-02-01T01:16:07.694Z,63.20
2023-02-01T01:17:09.400Z,63.10
2023-02-01T01:18:12.174Z,63.28
2023-02-01T01:19:14.897Z,64.10
2023-02-01T01:20:17.594Z,63.15
2023-02-01T01:21:20.427Z,63.96
2023-02-01T01:22:22.147Z,63.70
2023-02-01T01:23:25.022Z,64.10
2023-02-01T01:24:27.747Z,63.31
2023-02-01T01:25:29.642Z,63.81
2023-02-01T01:26:32.705Z,63.92
2023-02-01T01:27:34.408Z,63.92
2023-02-01T01:28:37.541Z,63.55
2023-02-01T01:29:40.611Z,63.60
2023-02-01T01:30:43.385Z,64.28
2023-02-01T01:31:46.324Z,64.19
2023-02-01T01:32:48.067Z,63.66
2023-02-01T01:33:51.741Z,64.92
2023-02-01T01:34:53.447Z,63.63
2023-02-01T01:35:56.181Z,64.26
2023-02-01T01:36:57.958Z,64.16
2023-02-01T01:38:01.173Z,63.89
2023-02-01T01:39:04.247Z,63.97
2023-02-01T01:40:08.496Z,64.56
2023-02-01T01:41:14.559Z,63.90
2023-02-01T01:42:16.286Z,64.38
2023-02-01T01:43:23.243Z,64.39
2023-02-01T01:45:04.694Z,64.81
2023-02-01T01:46:06.469Z,64.23
2023-02-01T01:47:09.391Z,64.38
2023-02-01T01:48:16.145Z,64.04
2023-02-01T01:49:21.024Z,64.77
2023-02-01T01:50:26.384Z,64.98
2023-02-01T01:51:31.131Z,64.13
2023-02-01T01:52:32.901Z,64.41
2023-02-01T01:53:40.079Z,64.64
2023-02-01T01:54:45.378Z,64.92
2023-02-01T01:55:49.730Z,64.34
2023-02-01T01:56:54.718Z,64.10
2023-02-01T01:58:00.217Z,65.04
2023-02-01T01:59:02.425Z,65.41
2023-02-01T02:00:10.171Z,64.67
2023-02-01T02:01:11.942Z,65.43
2023-02-01T02:02:14.825Z,65.79
2023-02-01T02:03:20.120Z,65.42
2023-02-01T02:04:22.873Z,65.40
2023-02-01T02:05:24.640Z,65.51
2023-02-01T02:06:37.238Z,65.08
2023-02-01T02:07:41.678Z,65.88
2023-02-01T02:08:44.428Z,65.55
2023-02-01T02:09:59.500Z,65.13
2023-02-01T02:11:03.638Z,65.31
2023-02-01T02:12:08.464Z,65.71
2023-02-01T02:13:11.902Z,66.28
2023-02-01T02:14:15.024Z,65.68
2023-02-01T02:15:19.466Z,65.49
2023-02-01T02:16:32.313Z,65.34
2023-02-01T02:17:39.474Z,65.80
2023-02-01T02:18:46.948Z,66.42
2023-02-01T02:20:05.960Z,65.80
2023-02-01T02:21:20.582Z,65.90
2023-02-01T02:22:43.646Z,65.63
2023-02-01T02:24:18.175Z,66.13
2023-02-01T02:26:00.893Z,66.36
2023-02-01T02:27:23.967Z,66.10
2023-02-01T02:29:01.503Z,67.02
2023-02-01T02:30:30.272Z,67.20
2023-02-01T02:31:46.730Z,66.96
2023-02-01T02:33:19.988Z,66.72
2023-02-01T02:34:26.555Z,66.94
2023-02-01T02:35:32.945Z,67.31
2023-02-01T02:36:41.058Z,67.90
2023-02-01T02:37:46.936Z,67.41
2023-02-01T02:38:53.715Z,67.63
2023-02-01T02:40:01.782Z,67.55
2023-02-01T02:41:10.039Z,66.81
2023-02-01T02:42:35.454Z,67.81
2023-02-01T02:44:03.815Z,67.06
2023-02-01T02:45:28.251Z,66.97
2023-02-01T02:46:53.343Z,67.40
2023-02-01T02:47:58.800Z,66.91
2023-02-01T02:49:07.438Z,67.04
2023-02-01T02:50:37.181Z,66.59
2023-02-01T02:52:01.901Z,66.61
2023-02-01T02:53:27.294Z,67.61
2023-02-01T02:54:48.232Z,66.85
2023-02-01T02:55:51.877Z,66.94
2023-02-01T02:57:13.246Z,66.67
2023-02-01T02:58:34.594Z,67.71
2023-02-01T02:59:55.472Z,67.13
2023-02-01T03:01:16.254Z,67.76
2023-02-01T03:02:36.891Z,67.85
2023-02-01T03:03:57.460Z,67.21
2023-02-01T03:05:01.550Z,66.88
2023-02-01T03:06:03.413Z,66.85
2023-02-01T03:07:17.036Z,67.17
2023-02-01T03:08:20.684Z,66.71
2023-02-01T03:09:28.934Z,67.06
2023-02-01T03:10:39.959Z,67.88
2023-02-01T03:12:00.605Z,66.67
2023-02-01T03:13:05.869Z,66.92
2023-02-01T03:14:07.702Z,67.68
2023-02-01T03:15:13.489Z,67.54
2023-02-01T03:16:18.797Z,67.41
2023-02-01T03:17:24.344Z,67.42
2023-02-01T03:18:31.861Z,67.60
2023-02-01T03:19:37.213Z,67.36
2023-02-01T03:20:42.271Z,67.84
2023-02-01T03:21:47.782Z,68.01
2023-02-01T03:22:50.808Z,67.57
2023-02-01T03:23:54.960Z,68.08
2023-02-01T03:24:59.546Z,67.79
2023-02-01T03:26:03.180Z,67.56
2023-02-01T03:27:07.180Z,67.28
2023-02-01T03:28:11.415Z,67.72
2023-02-01T03:29:15.529Z,67.58
2023-02-01T03:30:20.637Z,67.43
2023-02-01T03:31:23.067Z,68.10
2023-02-01T03:32:25.825Z,67.26
2023-02-01T03:33:28.475Z,67.85
2023-02-01T03:34:31.381Z,67.67
2023-02-01T03:35:34.942Z,67.57
2023-02-01T03:36:42.789Z,67.12
2023-02-01T03:37:45.084Z,67.66
2023-02-01T03:38:53.001Z,67.28
2023-02-01T03:39:58.581Z,67.83
2023-02-01T03:41:05.918Z,67.31
2023-02-01T03:42:10.741Z,67.76
2023-02-01T03:43:17.135Z,67.75
2023-02-01T03:44:23.058Z,67.68
2023-02-01T03:45:29.307Z,66.80
2023-02-01T03:46:34.751Z,67.97
2023-02-01T03:47:39.827Z,66.72
2023-02-01T03:48:41.747Z,67.72
2023-02-01T03:49:47.201Z,67.10
2023-02-01T03:50:52.626Z,67.01
2023-02-01T03:51:57.065Z,66.80
2023-02-01T03:53:00.908Z,67.54
2023-02-01T03:54:04.691Z,66.85
2023-02-01T03:55:07.854Z,66.73
2023-02-01T03:56:12.526Z,66.36
2023-02-01T03:57:17.215Z,66.80
2023-02-01T03:58:21.428Z,66.92
2023-02-01T03:59:23.154Z,65.79
2023-02-01T04:00:27.835Z,66.46
2023-02-01T04:01:30.541Z,66.76
2023-02-01T04:02:33.292Z,66.25
2023-02-01T04:03:35.965Z,67.29
2023-02-01T04:04:38.458Z,66.82
2023-02-01T04:05:41.153Z,66.42
2023-02-01T04:06:42.913Z,66.41
2023-02-01T04:07:47.115Z,66.12
2023-02-01T04:08:48.818Z,66.92
2023-02-01T04:09:51.515Z,66.57
2023-02-01T04:10:53.224Z,66.00
2023-02-01T04:11:55.904Z,67.12
2023-02-01T04:12:57.628Z,67.00
2023-02-01T04:14:05.130Z,66.36
2023-02-01T04:15:08.263Z,66.60
2023-02-01T04:16:11.147Z,66.74
2023-02-01T04:17:12.885Z,66.34
2023-02-01T04:18:15.559Z,66.64
2023-02-01T04:19:17.358Z,66.28
2023-02-01T04:20:20.632Z,66.60
2023-02-01T04:21:22.471Z,66.29
2023-02-01T04:22:25.362Z,66.19
2023-02-01T04:23:28.610Z,66.24
2023-02-01T04:24:31.386Z,66.91
2023-02-01T04:25:33.107Z,66.99
2023-02-01T04:26:35.812Z,66.63
2023-02-01T04:27:37.647Z,66.65
2023-02-01T04:28:40.303Z,66.80
2023-02-01T04:29:42.346Z,66.39
2023-02-01T04:30:45.895Z,66.91
2023-02-01T04:31:47.721Z,67.03
2023-02-01T04:32:50.428Z,66.78
2023-02-01T04:33:52.467Z,67.04
2023-02-01T04:34:55.275Z,66.84
2023-02-01T04:35:56.968Z,67.02
2023-02-01T04:36:59.672Z,66.22
2023-02-01T04:38:01.664Z,66.73
2023-02-01T04:39:05.856Z,66.49
2023-02-01T04:40:08.757Z,66.46
2023-02-01T04:41:11.423Z,66.11
2023-02-01T04:42:13.305Z,66.29
2023-02-01T04:43:16.074Z,66.54
2023-02-01T04:44:19.014Z,66.81
2023-02-01T04:45:21.669Z,66.92
2023-02-01T04:46:23.595Z,66.37
2023-02-01T04:47:26.297Z,66.45
2023-02-01T04:48:28.653Z,66.67
2023-02-01T04:49:31.355Z,66.95
2023-02-01T04:50:33.058Z,66.56
2023-02-01T04:51:35.802Z,66.54
2023-02-01T04:52:38.034Z,66.94
2023-02-01T04:53:40.763Z,66.41
2023-02-01T04:54:43.912Z,66.15
2023-02-01T04:55:46.843Z,65.86
2023-02-01T04:56:48.531Z,66.75
2023-02-01T04:57:51.293Z,66.01
2023-02-01T04:58:54.050Z,66.71
2023-02-01T04:59:55.767Z,66.35
2023-02-01T05:00:58.469Z,65.88
2023-02-01T05:02:00.203Z,66.21
2023-02-01T05:03:03.011Z,65.84
2023-02-01T05:04:05.309Z,66.28
2023-02-01T05:05:08.632Z,65.80
2023-02-01T05:06:10.408Z,65.75
2023-02-01T05:07:13.247Z,66.02
2023-02-01T05:08:15.919Z,65.85
2023-02-01T05:09:17.761Z,65.86
2023-02-01T05:10:22.052Z,66.60
2023-02-01T05:11:42.336Z,66.33
2023-02-01T05:13:02.641Z,65.71
2023-02-01T05:14:04.430Z,66.12
2023-02-01T05:15:08.356Z,66.01
2023-02-01T05:16:10.127Z,66.09
2023-02-01T05:17:12.835Z,66.00
2023-02-01T05:18:14.561Z,65.53
2023-02-01T05:19:17.219Z,65.60
2023-02-01T05:20:19.179Z,65.71
2023-02-01T05:21:21.883Z,65.74
2023-02-01T05:22:23.587Z,66.15
2023-02-01T05:23:26.349Z,65.46
2023-02-01T05:24:28.106Z,65.81
2023-02-01T05:25:32.138Z,65.32
2023-02-01T05:26:34.562Z,66.04
2023-02-01T05:27:37.485Z,65.01
2023-02-01T05:28:39.180Z,65.60
2023-02-01T05:29:41.941Z,65.55
2023-02-01T05:30:43.965Z,65.51
2023-02-01T05:31:47.018Z,65.78
2023-02-01T05:32:51.037Z,65.18
2023-02-01T05:33:53.836Z,65.48
2023-02-01T05:34:55.927Z,64.51
2023-02-01T05:35:58.615Z,65.53
2023-02-01T05:37:00.373Z,65.46
2023-02-01T05:38:03.080Z,64.78
2023-02-01T05:39:04.995Z,64.76
2023-02-01T05:40:08.981Z,64.42
2023-02-01T05:41:12.037Z,64.43
2023-02-01T05:42:14.830Z,64.72
2023-02-01T05:43:17.349Z,65.40
2023-02-01T05:44:20.147Z,64.95
2023-02-01T05:45:21.949Z,65.06
2023-02-01T05:46:24.901Z,64.78
2023-02-01T05:47:26.782Z,64.43
2023-02-01T05:48:29.486Z,64.74
2023-02-01T05:49:31.335Z,64.57
2023-02-01T05:50:34.031Z,63.66
2023-02-01T05:51:35.730Z,64.80
2023-02-01T05:52:38.418Z,64.56
2023-02-01T05:53:40.145Z,64.04
2023-02-01T05:54:42.841Z,64.29
2023-02-01T05:55:44.638Z,63.77
2023-02-01T05:56:48.699Z,63.80
2023-02-01T05:57:50.376Z,63.66
2023-02-01T05:58:53.118Z,63.81
2023-02-01T05:59:56.468Z,63.98
2023-02-01T06:01:01.500Z,64.09
2023-02-01T06:02:03.214Z,64.20
2023-02-01T06:03:05.893Z,63.67
2023-02-01T06:04:07.637Z,63.71
2023-02-01T06:05:10.671Z,64.26
2023-02-01T06:06:12.418Z,64.10
2023-02-01T06:07:15.156Z,63.95
2023-02-01T06:08:18.154Z,62.96
2023-02-01T06:09:21.122Z,63.86
2023-02-01T06:10:23.252Z,64.03
2023-02-01T06:11:33.805Z,63.10
2023-02-01T06:12:36.905Z,63.48
2023-02-01T06:13:39.687Z,63.71
2023-02-01T06:14:41.976Z,63.62
2023-02-01T06:15:45.067Z,62.88
2023-02-01T06:16:47.463Z,63.27
2023-02-01T06:17:50.160Z,63.60
2023-02-01T06:18:52.100Z,63.64
2023-02-01T06:19:54.794Z,63.11
2023-02-01T06:20:57.159Z,63.41
2023-02-01T06:21:59.925Z,63.20
2023-02-01T06:23:01.623Z,63.21
2023-02-01T06:24:04.843Z,62.98
2023-02-01T06:25:08.362Z,63.04
2023-02-01T06:26:11.643Z,62.90
2023-02-01T06:27:14.258Z,63.09
2023-02-01T06:28:18.493Z,63.90
2023-02-01T06:29:20.211Z,64.02
2023-02-01T06:30:23.237Z,63.02
2023-02-01T06:31:26.242Z,63.79
2023-02-01T06:32:28.985Z,63.42
2023-02-01T06:33:31.311Z,63.88
2023-02-01T06:34:33.997Z,63.86
2023-02-01T06:35:35.696Z,63.85
2023-02-01T06:36:38.927Z,62.74
2023-02-01T06:37:40.690Z,63.10
2023-02-01T06:38:43.796Z,63.80
2023-02-01T06:39:46.606Z,63.20
2023-02-01T06:40:53.441Z,63.22
2023-02-01T06:41:56.093Z,63.06
2023-02-01T06:42:59.412Z,63.46
2023-02-01T06:44:03.482Z,63.58
2023-02-01T06:45:07.633Z,63.42
2023-02-01T06:46:12.229Z,63.91
2023-02-01T06:47:13.960Z,63.15
2023-02-01T06:48:16.656Z,63.58
2023-02-01T06:49:19.365Z,63.74
2023-02-01T06:50:22.731Z,63.47
2023-02-01T06:51:27.339Z,63.62
2023-02-01T06:52:29.077Z,63.47
2023-02-01T06:53:31.967Z,63.75
2023-02-01T06:54:35.073Z,62.74
2023-02-01T06:55:37.893Z,62.56
2023-02-01T06:56:39.679Z,63.48
2023-02-01T06:57:42.336Z,63.06
2023-02-01T06:58:44.094Z,63.02
2023-02-01T06:59:48.154Z,63.58
2023-02-01T07:00:49.999Z,62.59
2023-02-01T07:01:52.735Z,61.85
2023-02-01T07:02:54.506Z,61.99
2023-02-01T07:03:57.242Z,62.71
2023-02-01T07:04:58.899Z,62.63
2023-02-01T07:06:02.145Z,62.57
2023-02-01T07:07:03.907Z,62.20
2023-02-01T07:08:06.785Z,62.33
2023-02-01T07:09:09.123Z,62.09
2023-02-01T07:10:12.717Z,61.88
2023-02-01T07:11:15.917Z,61.83
2023-02-01T07:12:19.451Z,62.15
2023-02-01T07:13:21.230Z,61.75
2023-02-01T07:14:23.874Z,61.07
2023-02-01T07:15:26.919Z,61.30
2023-02-01T07:16:30.145Z,60.92
2023-02-01T07:17:32.047Z,60.74
2023-02-01T07:18:35.003Z,61.50
2023-02-01T07:19:36.695Z,60.62
2023-02-01T07:20:39.339Z,60.75
2023-02-01T07:21:41.984Z,61.08
2023-02-01T07:22:43.742Z,60.28
2023-02-01T07:23:46.626Z,60.45
2023-02-01T07:24:48.490Z,60.82
2023-02-01T07:25:51.235Z,60.94
2023-02-01T07:26:54.108Z,60.19
2023-02-01T07:27:55.822Z,60.54
2023-02-01T07:28:58.476Z,60.61
2023-02-01T07:30:03.013Z,61.30
2023-02-01T07:31:08.175Z,60.41
2023-02-01T07:32:09.924Z,60.69
2023-02-01T07:33:12.595Z,60.27
2023-02-01T07:34:15.356Z,60.05
2023-02-01T07:35:17.237Z,60.47
2023-02-01T07:36:20.843Z,60.49
2023-02-01T07:37:24.887Z,60.03
2023-02-01T07:38:26.591Z,60.31
2023-02-01T07:39:32.757Z,60.25
2023-02-01T07:40:35.457Z,60.82
2023-02-01T07:41:37.149Z,60.30
2023-02-01T07:42:39.849Z,60.30
2023-02-01T07:43:42.715Z,60.94
2023-02-01T07:44:45.376Z,61.28
2023-02-01T07:45:52.518Z,60.35
2023-02-01T07:46:56.753Z,60.91
2023-02-01T07:47:58.455Z,60.85
2023-02-01T07:49:01.239Z,60.34
2023-02-01T07:50:03.058Z,60.77
2023-02-01T07:51:08.053Z,60.44
2023-02-01T07:52:09.776Z,60.26
2023-02-01T07:53:12.504Z,60.56
2023-02-01T07:54:15.149Z,60.33
2023-02-01T07:55:18.049Z,60.41
2023-02-01T07:56:23.437Z,60.23
2023-02-01T07:57:25.206Z,60.08
2023-02-01T07:58:28.394Z,59.66
2023-02-01T07:59:31.088Z,59.45
2023-02-01T08:00:51.197Z,59.93
2023-02-01T08:01:52.978Z,60.06
2023-02-01T08:02:59.642Z,59.39
2023-02-01T08:04:03.967Z,60.17
2023-02-01T08:05:06.652Z,60.58
2023-02-01T08:06:09.391Z,61.08
2023-02-01T08:07:12.214Z,60.68
2023-02-01T08:08:15.137Z,61.01
2023-02-01T08:09:17.823Z,60.65
2023-02-01T08:10:20.277Z,60.21
2023-02-01T08:11:24.401Z,60.15
2023-02-01T08:12:27.946Z,60.00
2023-02-01T08:13:30.772Z,58.74
2023-02-01T08:14:33.722Z,58.76
2023-02-01T08:15:35.368Z,59.14
2023-02-01T08:16:40.253Z,58.41
2023-02-01T08:17:47.902Z,59.44
2023-02-01T08:18:52.304Z,58.60
2023-02-01T08:19:53.958Z,58.80
2023-02-01T08:20:56.772Z,57.81
2023-02-01T08:22:00.332Z,58.57
2023-02-01T08:23:02.051Z,58.07
2023-02-01T08:24:06.660Z,58.12
2023-02-01T08:25:09.292Z,57.74
2023-02-01T08:26:14.495Z,57.91
2023-02-01T08:27:17.285Z,57.22
2023-02-01T08:28:19.257Z,58.47
2023-02-01T08:29:21.914Z,57.81
2023-02-01T08:30:23.844Z,57.56
2023-02-01T08:31:28.127Z,57.70
2023-02-01T08:32:29.913Z,57.30
2023-02-01T08:33:34.453Z,57.61
2023-02-01T08:34:37.589Z,57.46
2023-02-01T08:35:44.027Z,57.04
2023-02-01T08:36:48.952Z,56.99
2023-02-01T08:37:51.066Z,56.90
2023-02-01T08:38:54.092Z,56.85
2023-02-01T08:39:55.839Z,57.27
2023-02-01T08:40:59.013Z,56.65
2023-02-01T08:42:33.533Z,56.25
2023-02-01T08:43:36.246Z,56.64
2023-02-01T08:44:37.967Z,56.44
2023-02-01T08:45:41.793Z,55.81
2023-02-01T08:46:44.557Z,55.89
2023-02-01T08:47:49.094Z,56.05
2023-02-01T08:48:52.663Z,55.70
2023-02-01T08:49:55.762Z,55.89
2023-02-01T08:50:58.557Z,55.53
2023-02-01T08:52:04.010Z,55.75
2023-02-01T08:53:09.727Z,55.49
2023-02-01T08:54:12.427Z,55.82
2023-02-01T08:55:14.783Z,55.27
2023-02-01T08:56:18.730Z,55.61
2023-02-01T08:57:20.425Z,55.31
2023-02-01T08:58:23.175Z,55.80
2023-02-01T08:59:27.582Z,55.52
2023-02-01T09:00:30.547Z,55.72
2023-02-01T09:01:32.334Z,55.46
2023-02-01T09:02:35.035Z,55.65
2023-02-01T09:03:37.754Z,55.70
2023-02-01T09:04:39.650Z,55.13
2023-02-01T09:05:49.488Z,55.75
2023-02-01T09:06:51.629Z,55.24
2023-02-01T09:07:54.581Z,55.30
2023-02-01T09:08:57.157Z,55.40
2023-02-01T09:10:01.854Z,55.27
2023-02-01T09:11:06.027Z,55.35
2023-02-01T09:12:07.933Z,55.20
2023-02-01T09:13:11.022Z,55.35
2023-02-01T09:14:13.714Z,55.27
2023-02-01T09:15:15.575Z,55.40
2023-02-01T09:16:18.331Z,55.30
2023-02-01T09:17:21.068Z,55.17
2023-02-01T09:18:24.011Z,55.27
2023-02-01T09:19:27.532Z,55.10
2023-02-01T09:20:30.520Z,55.05
2023-02-01T09:21:34.539Z,55.31
2023-02-01T09:22:37.209Z,55.14
2023-02-01T09:23:39.956Z,55.71
2023-02-01T09:24:41.681Z,55.33
2023-02-01T09:25:46.840Z,55.81
2023-02-01T09:26:53.214Z,55.81
2023-02-01T09:28:00.534Z,55.39
2023-02-01T09:29:04.475Z,54.81
2023-02-01T09:30:08.172Z,55.15
2023-02-01T09:31:10.917Z,55.77
2023-02-01T09:32:13.912Z,55.60
2023-02-01T09:33:18.937Z,55.32
2023-02-01T09:34:21.734Z,55.07
2023-02-01T09:35:24.406Z,54.18
2023-02-01T09:36:26.292Z,55.11
2023-02-01T09:37:30.385Z,54.62
2023-02-01T09:38:36.508Z,53.93
2023-02-01T09:39:41.474Z,54.53
2023-02-01T09:40:47.647Z,54.78
2023-02-01T09:41:57.949Z,54.36
2023-02-01T09:43:10.187Z,54.45
2023-02-01T09:44:25.718Z,53.90
2023-02-01T09:45:34.277Z,53.70
2023-02-01T09:46:36.451Z,54.21
2023-02-01T09:47:42.893Z,54.21
2023-02-01T09:48:46.144Z,53.95
2023-02-01T09:49:53.770Z,53.80
2023-02-01T09:50:58.441Z,53.29
2023-02-01T09:52:03.369Z,53.96
2023-02-01T09:53:12.630Z,53.91
2023-02-01T09:54:17.696Z,54.43
2023-02-01T09:55:24.839Z,53.17
2023-02-01T09:56:31.530Z,53.70
2023-02-01T09:57:43.973Z,54.23
2023-02-01T09:58:49.979Z,54.05
2023-02-01T09:59:58.346Z,53.37
2023-02-01T10:01:02.586Z,53.44
2023-02-01T10:02:10.408Z,52.96
2023-02-01T10:03:14.116Z,52.74
2023-02-01T10:04:16.631Z,52.98
2023-02-01T10:05:24.644Z,53.34
2023-02-01T10:06:38.630Z,53.03
2023-02-01T10:07:45.681Z,52.97
2023-02-01T10:09:12.647Z,53.05
2023-02-01T10:10:19.859Z,52.56
2023-02-01T10:11:26.424Z,52.89
2023-02-01T10:12:58.442Z,52.75
2023-02-01T10:14:07.815Z,52.33
2023-02-01T10:15:20.795Z,52.03
2023-02-01T10:16:33.798Z,52.15
2023-02-01T10:17:47.555Z,52.40
2023-02-01T10:19:13.457Z,52.19
2023-02-01T10:20:21.645Z,52.29
2023-02-01T10:21:43.007Z,51.31
2023-02-01T10:23:10.638Z,52.21
2023-02-01T10:24:38.260Z,52.21
2023-02-01T10:25:46.419Z,52.10
2023-02-01T10:26:52.553Z,51.35
2023-02-01T10:27:54.395Z,52.07
2023-02-01T10:28:59.382Z,51.92
2023-02-01T10:30:08.287Z,51.39
2023-02-01T10:31:10.513Z,51.67
2023-02-01T10:32:16.269Z,51.08
2023-02-01T10:33:26.482Z,51.41
2023-02-01T10:34:32.567Z,51.53
2023-02-01T10:35:37.506Z,51.62
2023-02-01T10:36:43.606Z,51.79
2023-02-01T10:37:46.240Z,51.85
2023-02-01T10:38:49.088Z,51.42
2023-02-01T10:39:54.713Z,50.54
2023-02-01T10:40:59.539Z,50.71
2023-02-01T10:42:02.195Z,50.45
2023-02-01T10:43:05.085Z,50.55
2023-02-01T10:44:11.606Z,50.75
2023-02-01T10:45:17.397Z,51.24
2023-02-01T10:46:19.128Z,50.47
2023-02-01T10:47:21.886Z,50.13
2023-02-01T10:48:23.728Z,51.29
2023-02-01T10:49:34.419Z,50.92
2023-02-01T10:50:41.341Z,50.68
2023-02-01T10:51:46.236Z,51.25
2023-02-01T10:52:50.554Z,50.40
2023-02-01T10:53:57.646Z,50.50
2023-02-01T10:55:30.525Z,50.70
2023-02-01T10:56:33.366Z,50.61
2023-02-01T10:57:35.047Z,50.54
2023-02-01T10:58:44.738Z,50.80
2023-02-01T10:59:47.397Z,50.63
2023-02-01T11:00:55.630Z,50.69
2023-02-01T11:02:02.556Z,50.09
2023-02-01T11:03:22.112Z,50.79
2023-02-01T11:04:29.554Z,50.36
2023-02-01T11:05:45.653Z,50.13
2023-02-01T11:06:50.362Z,50.10
2023-02-01T11:07:55.728Z,50.31
2023-02-01T11:08:59.982Z,50.13
2023-02-01T11:10:04.319Z,50.75
2023-02-01T11:11:12.079Z,50.61
2023-02-01T11:12:29.473Z,50.46
2023-02-01T11:13:36.778Z,50.80
2023-02-01T11:14:41.772Z,49.77
2023-02-01T11:15:46.069Z,50.35
2023-02-01T11:16:51.226Z,50.28
2023-02-01T11:17:55.682Z,50.54
2023-02-01T11:19:00.260Z,50.01
2023-02-01T11:20:06.323Z,50.81
2023-02-01T11:21:10.393Z,50.27
2023-02-01T11:22:14.215Z,49.91
2023-02-01T11:23:17.369Z,50.29
2023-02-01T11:24:24.463Z,50.13
2023-02-01T11:25:28.243Z,49.95
2023-02-01T11:26:32.176Z,50.48
2023-02-01T11:27:34.758Z,50.89
2023-02-01T11:28:42.448Z,50.52
2023-02-01T11:29:47.236Z,50.54
2023-02-01T11:30:50.324Z,50.05
2023-02-01T11:31:53.046Z,50.24
2023-02-01T11:32:55.134Z,50.59
2023-02-01T11:34:00.654Z,51.64
2023-02-01T11:35:06.274Z,50.31
2023-02-01T11:36:10.013Z,50.82
2023-02-01T11:37:19.383Z,51.06
2023-02-01T11:38:23.291Z,50.82
2023-02-01T11:39:28.167Z,50.36
2023-02-01T11:40:36.963Z,50.77
2023-02-01T11:41:44.256Z,51.08
2023-02-01T11:42:55.436Z,51.08
2023-02-01T11:43:59.428Z,50.35
2023-02-01T11:45:23.233Z,50.81
2023-02-01T11:46:30.115Z,51.32
2023-02-01T11:47:41.202Z,51.22
2023-02-01T11:48:44.629Z,51.35
2023-02-01T11:49:46.922Z,51.11
2023-02-01T11:50:56.071Z,50.82
2023-02-01T11:52:10.359Z,50.67
2023-02-01T11:53:25.862Z,51.47
2023-02-01T11:54:48.273Z,50.95
2023-02-01T11:56:10.299Z,50.82
2023-02-01T11:57:24.853Z,51.24
2023-02-01T11:58:44.695Z,50.89
2023-02-01T12:00:09.638Z,50.70
2023-02-01T12:01:24.151Z,51.38
2023-02-01T12:02:47.499Z,50.71
2023-02-01T12:04:13.305Z,51.21
2023-02-01T12:05:27.049Z,51.30
2023-02-01T12:06:36.688Z,51.34
2023-02-01T12:07:51.909Z,51.09
2023-02-01T12:09:15.400Z,50.93
2023-02-01T12:10:27.319Z,51.29
2023-02-01T12:11:39.846Z,50.96
2023-02-01T12:12:49.085Z,51.53
2023-02-01T12:13:58.949Z,51.38
2023-02-01T12:15:12.372Z,51.18
2023-02-01T12:16:24.172Z,50.88
2023-02-01T12:17:44.134Z,50.84
2023-02-01T12:19:02.318Z,51.01
2023-02-01T12:20:15.949Z,51.09
2023-02-01T12:21:30.701Z,51.28
2023-02-01T12:22:46.513Z,51.20
2023-02-01T12:24:03.365Z,51.61
2023-02-01T12:25:18.063Z,51.18
2023-02-01T12:26:41.385Z,51.24
2023-02-01T12:28:14.790Z,51.52
2023-02-01T12:29:49.841Z,51.40
2023-02-01T12:31:06.244Z,51.23
2023-02-01T12:32:13.568Z,51.57
2023-02-01T12:33:21.245Z,51.35
2023-02-01T12:34:35.473Z,51.54
2023-02-01T12:35:51.988Z,51.23
2023-02-01T12:37:08.849Z,51.41
2023-02-01T12:38:23.236Z,51.02
2023-02-01T12:39:31.983Z,51.25
2023-02-01T12:40:46.117Z,51.26
2023-02-01T12:41:57.840Z,50.90
2023-02-01T12:43:04.758Z,50.60
2023-02-01T12:44:11.382Z,49.65
2023-02-01T12:45:18.986Z,50.52
2023-02-01T12:46:24.509Z,50.49
2023-02-01T12:47:31.930Z,49.74
2023-02-01T12:48:36.351Z,49.92
2023-02-01T12:49:47.451Z,50.25
2023-02-01T12:50:53.018Z,49.94
2023-02-01T12:51:59.947Z,49.82
2023-02-01T12:53:10.202Z,49.78
2023-02-01T12:54:16.767Z,49.68
2023-02-01T12:55:24.247Z,49.80
2023-02-01T12:56:31.655Z,50.05
2023-02-01T12:57:36.904Z,49.70
2023-02-01T12:58:42.839Z,49.56
2023-02-01T12:59:49.472Z,50.26
2023-02-01T13:00:55.257Z,49.88
2023-02-01T13:02:01.514Z,49.38
2023-02-01T13:03:10.230Z,49.65
2023-02-01T13:04:23.333Z,49.63
2023-02-01T13:05:30.968Z,49.69
2023-02-01T13:06:37.515Z,50.26
2023-02-01T13:07:43.886Z,49.83
2023-02-01T13:08:51.402Z,49.75
2023-02-01T13:09:56.323Z,49.39
2023-02-01T13:11:03.108Z,49.63
2023-02-01T13:12:13.692Z,49.94
2023-02-01T13:13:22.425Z,49.26
2023-02-01T13:14:29.935Z,49.59
2023-02-01T13:15:35.741Z,49.81
2023-02-01T13:16:42.862Z,49.90
2023-02-01T13:17:47.311Z,49.25
2023-02-01T13:18:51.894Z,49.63
2023-02-01T13:19:57.876Z,50.04
2023-02-01T13:21:06.006Z,49.87
2023-02-01T13:22:14.328Z,49.33
2023-02-01T13:23:24.652Z,49.79
2023-02-01T13:24:33.789Z,49.45
2023-02-01T13:25:40.192Z,49.51
2023-02-01T13:26:42.962Z,49.29
2023-02-01T13:27:45.612Z,49.84
2023-02-01T13:28:51.790Z,49.62
2023-02-01T13:29:57.378Z,49.60
2023-02-01T13:31:13.036Z,50.09
2023-02-01T13:33:50.683Z,50.10
2023-02-01T13:34:32.104Z,49.65
2023-02-01T13:36:02.586Z,49.96
2023-02-01T13:37:16.667Z,49.99
2023-02-01T13:38:49.636Z,49.62
2023-02-01T13:40:02.406Z,49.64
2023-02-01T13:41:17.403Z,49.94
2023-02-01T13:42:23.166Z,50.03
2023-02-01T13:43:27.291Z,49.84
2023-02-01T13:44:34.188Z,49.42
2023-02-01T13:45:38.098Z,49.72
2023-02-01T13:46:42.451Z,49.85
2023-02-01T13:47:48.051Z,49.22
2023-02-01T13:48:53.667Z,49.06
2023-02-01T13:49:57.861Z,49.86
2023-02-01T13:51:01.294Z,49.77
2023-02-01T13:52:03.326Z,49.46
2023-02-01T13:53:16.104Z,49.34
2023-02-01T13:54:27.902Z,49.63
2023-02-01T13:55:35.842Z,49.13
2023-02-01T13:56:42.458Z,50.01
2023-02-01T13:57:46.027Z,49.52
2023-02-01T13:58:49.913Z,49.50
2023-02-01T13:59:55.276Z,49.96
2023-02-01T14:01:46.325Z,49.21
2023-02-01T14:02:51.074Z,49.47
2023-02-01T14:03:55.275Z,49.42
2023-02-01T14:04:58.113Z,49.82
2023-02-01T14:06:19.896Z,50.15
2023-02-01T14:07:24.846Z,49.06
2023-02-01T14:08:42.012Z,49.53
2023-02-01T14:09:44.685Z,49.47
2023-02-01T14:10:51.624Z,49.85
2023-02-01T14:11:55.513Z,49.48